Time;durP1;ratioP1;P1;durP2;ratioP2;P2;SDS_P1;SDS_P2;PMS_P1;PMS_P2;Temp;Humidity;BMP_temperature;BMP_pressure;BME280_temperature;BME280_humidity;BME280_pressure;Samples;Min_cycle;Max_cycle;Signal;HPM_P1;HPM_P2
2023/01/12 00:01:06;;;;;;;5.40;1.70;;;;;;;9.85;55.91;97828.63;5056304;28;20628;-71
2023/01/12 00:03:32;;;;;;;6.73;1.67;;;;;;;9.87;56.29;97831.13;5054056;28;20659;-71
2023/01/12 00:05:59;;;;;;;5.60;1.70;;;;;;;9.78;55.93;97827.50;5058196;28;20456;-70
2023/01/12 00:08:25;;;;;;;7.33;1.60;;;;;;;9.89;55.84;97832.66;5043544;28;20210;-72
2023/01/12 00:10:54;;;;;;;3.43;1.60;;;;;;;9.82;56.21;97836.75;5049723;28;20424;-70
2023/01/12 00:13:20;;;;;;;8.63;1.87;;;;;;;9.70;56.59;97835.19;5055574;28;20236;-70
2023/01/12 00:18:31;;;;;;;6.80;1.67;;;;;;;9.71;56.39;97836.84;5048774;28;20217;-70
2023/01/12 00:20:56;;;;;;;9.90;1.87;;;;;;;9.62;56.62;97846.31;5053610;28;20421;-71
2023/01/12 00:23:24;;;;;;;7.07;1.60;;;;;;;9.67;57.06;97842.34;5046436;28;20441;-70
2023/01/12 00:25:50;;;;;;;4.20;1.73;;;;;;;9.69;56.94;97829.13;5047378;28;20312;-70
2023/01/12 00:28:16;;;;;;;9.13;1.97;;;;;;;9.62;57.18;97833.22;5053614;28;21069;-70
2023/01/12 00:30:41;;;;;;;4.67;1.63;;;;;;;9.68;57.13;97830.06;5052493;28;20433;-69
2023/01/12 00:33:07;;;;;;;8.77;2.10;;;;;;;9.66;56.72;97830.22;5054920;28;20199;-70
2023/01/12 00:35:34;;;;;;;6.17;1.50;;;;;;;9.54;57.04;97836.50;5042629;28;20271;-70
2023/01/12 00:38:00;;;;;;;5.63;1.57;;;;;;;9.56;57.51;97828.50;5053148;28;20207;-72
2023/01/12 00:40:25;;;;;;;3.27;1.57;;;;;;;9.53;57.47;97827.81;5045805;28;20425;-70
2023/01/12 00:45:35;;;;;;;7.67;1.90;;;;;;;9.63;57.05;97832.28;5046026;28;20629;-71
2023/01/12 00:48:00;;;;;;;9.83;2.23;;;;;;;9.66;57.10;97829.38;5058787;28;20489;-70
2023/01/12 00:50:26;;;;;;;2.60;1.30;;;;;;;9.59;57.11;97818.59;5056406;28;21727;-69
2023/01/12 00:52:51;;;;;;;10.43;2.17;;;;;;;9.77;57.12;97829.28;5060503;28;20185;-70
2023/01/12 00:55:17;;;;;;;3.10;1.53;;;;;;;9.78;57.21;97824.88;5053942;28;20302;-71
2023/01/12 00:57:42;;;;;;;10.97;1.90;;;;;;;9.83;57.25;97812.22;5064233;28;20210;-71
2023/01/12 01:00:08;;;;;;;9.03;1.60;;;;;;;9.90;56.97;97818.59;5048998;28;20649;-71
2023/01/12 01:02:33;;;;;;;10.70;2.33;;;;;;;9.84;56.81;97806.03;5053806;28;20186;-70
2023/01/12 01:04:59;;;;;;;7.63;1.90;;;;;;;9.78;57.16;97811.81;5049251;28;20997;-70
2023/01/12 01:07:24;;;;;;;7.20;1.80;;;;;;;9.70;57.58;97809.03;5053067;28;20299;-70
2023/01/12 01:09:50;;;;;;;8.67;2.47;;;;;;;9.78;57.30;97802.16;5053274;28;20234;-70
2023/01/12 01:12:16;;;;;;;5.10;1.67;;;;;;;9.77;57.42;97812.75;5048684;28;20188;-70
2023/01/12 01:14:41;;;;;;;6.47;2.07;;;;;;;9.83;56.88;97814.84;5055557;28;20188;-70
2023/01/12 01:17:06;;;;;;;6.10;1.83;;;;;;;9.87;56.79;97812.81;5043475;28;20303;-70
2023/01/12 01:19:32;;;;;;;6.93;2.10;;;;;;;9.91;56.89;97807.16;5051778;28;20212;-70
2023/01/12 01:21:57;;;;;;;6.20;1.80;;;;;;;9.98;55.94;97804.84;5056216;28;20207;-71
2023/01/12 01:24:23;;;;;;;5.37;1.67;;;;;;;9.98;56.58;97805.66;5040745;28;20271;-70
2023/01/12 01:26:49;;;;;;;4.77;1.57;;;;;;;9.91;56.67;97807.16;5047630;28;20257;-70
2023/01/12 01:29:15;;;;;;;3.83;1.60;;;;;;;10.02;56.15;97819.31;5045008;28;20241;-72
2023/01/12 01:31:40;;;;;;;4.40;1.43;;;;;;;10.10;56.27;97826.50;5061484;28;20440;-70
2023/01/12 01:34:06;;;;;;;7.97;1.87;;;;;;;10.05;55.99;97821.66;5047412;28;20676;-72
2023/01/12 01:36:31;;;;;;;8.50;2.00;;;;;;;10.05;55.98;97826.09;5042009;28;20178;-71
2023/01/12 01:38:58;;;;;;;5.30;1.80;;;;;;;10.10;55.88;97816.88;5053104;28;20318;-71
2023/01/12 01:41:29;;;;;;;3.00;1.37;;;;;;;10.08;56.03;97817.97;5043275;28;20958;-72
2023/01/12 01:44:25;;;;;;;3.67;1.40;;;;;;;10.05;56.08;97833.94;5057328;28;20545;-72
2023/01/12 01:46:53;;;;;;;5.00;1.50;;;;;;;10.09;56.04;97824.84;5047150;28;20423;-71
2023/01/12 01:49:29;;;;;;;8.13;1.77;;;;;;;10.10;55.94;97818.63;5047388;28;20426;-68
2023/01/12 01:52:03;;;;;;;8.47;1.90;;;;;;;10.10;56.17;97821.25;5057055;28;20494;-68
2023/01/12 01:54:33;;;;;;;2.40;1.60;;;;;;;9.97;55.99;97818.88;5048676;28;20420;-69
2023/01/12 01:56:58;;;;;;;6.40;2.00;;;;;;;9.94;56.28;97822.63;5058328;28;20502;-69
2023/01/12 01:59:27;;;;;;;11.67;1.90;;;;;;;10.05;56.32;97818.22;5052986;28;20424;-69
2023/01/12 02:01:53;;;;;;;6.17;1.30;;;;;;;10.05;56.11;97821.66;5044900;28;20921;-70
2023/01/12 02:04:18;;;;;;;10.23;2.53;;;;;;;10.04;55.90;97820.00;5056183;28;20435;-69
2023/01/12 02:06:44;;;;;;;5.40;1.40;;;;;;;10.05;55.77;97823.47;5045969;28;20274;-69
2023/01/12 02:09:21;;;;;;;5.07;1.50;;;;;;;10.03;55.90;97830.63;5047724;28;20205;-69
2023/01/12 02:17:15;;;;;;;3.33;1.23;;;;;;;10.22;55.40;97825.41;5050200;28;20496;-72
2023/01/12 02:20:25;;;;;;;6.20;1.30;;;;;;;10.15;55.63;97808.59;5042606;28;20419;-70
2023/01/12 02:23:18;;;;;;;7.63;1.90;;;;;;;10.16;55.37;97797.16;5042742;28;20191;-71
2023/01/12 02:26:22;;;;;;;6.50;1.63;;;;;;;10.06;55.81;97794.50;5043889;28;20419;-71
2023/01/12 02:29:00;;;;;;;7.23;1.70;;;;;;;10.15;55.73;97792.88;5047304;28;20450;-69
2023/01/12 02:31:31;;;;;;;8.70;1.77;;;;;;;10.18;55.49;97787.38;5051562;28;21703;-69
2023/01/12 02:34:17;;;;;;;5.07;1.70;;;;;;;10.17;55.10;97788.34;5049198;28;20415;-69
2023/01/12 02:36:45;;;;;;;4.57;1.70;;;;;;;10.14;55.61;97778.13;5041236;28;20420;-70
2023/01/12 02:39:38;;;;;;;5.90;2.20;;;;;;;10.10;55.68;97774.97;5048633;28;20463;-70
2023/01/12 02:45:23;;;;;;;5.53;1.80;;;;;;;10.23;55.46;97758.97;5048450;28;20430;-70
2023/01/12 02:47:56;;;;;;;6.10;1.70;;;;;;;10.10;55.65;97761.00;5058503;28;20510;-72
2023/01/12 02:50:46;;;;;;;8.20;2.00;;;;;;;10.18;55.69;97755.09;5048575;28;20430;-70
2023/01/12 02:53:28;;;;;;;7.20;1.60;;;;;;;10.15;55.29;97750.97;5058262;28;20430;-70
2023/01/12 02:55:53;;;;;;;5.70;1.70;;;;;;;10.08;55.64;97747.25;5056393;28;20557;-69
2023/01/12 02:58:21;;;;;;;10.27;1.57;;;;;;;10.08;55.37;97747.25;5058623;28;20464;-69
2023/01/12 03:00:48;;;;;;;5.23;1.63;;;;;;;10.11;55.60;97746.97;5050684;28;20190;-70
2023/01/12 03:03:16;;;;;;;9.40;3.10;;;;;;;10.02;55.60;97745.16;5043289;28;20433;-70
2023/01/12 03:05:42;;;;;;;5.70;1.50;;;;;;;9.97;56.09;97735.91;5057694;28;20425;-69
2023/01/12 03:08:10;;;;;;;5.03;1.80;;;;;;;10.05;55.86;97730.00;5048340;28;20439;-69
2023/01/12 03:10:54;;;;;;;10.40;1.63;;;;;;;9.98;56.19;97718.44;5062716;28;20424;-69
2023/01/12 03:13:22;;;;;;;3.07;1.70;;;;;;;9.97;56.19;97740.34;5032623;28;20426;-69
2023/01/12 03:15:51;;;;;;;4.77;1.50;;;;;;;9.82;56.62;97742.53;5054604;28;20521;-69
2023/01/12 03:18:24;;;;;;;8.70;1.53;;;;;;;9.84;56.43;97753.66;5041539;28;20910;-71
2023/01/12 03:20:53;;;;;;;9.77;1.87;;;;;;;9.95;56.46;97745.72;5056151;28;20541;-71
2023/01/12 03:23:22;;;;;;;7.10;2.27;;;;;;;9.90;56.45;97737.44;5057051;28;20450;-69
2023/01/12 03:25:50;;;;;;;5.53;1.53;;;;;;;9.96;56.49;97738.69;5060027;28;20469;-70
2023/01/12 03:28:18;;;;;;;8.63;1.47;;;;;;;9.77;56.39;97742.91;5054424;28;20494;-71
2023/01/12 03:30:48;;;;;;;7.23;1.87;;;;;;;9.86;56.38;97743.06;5069385;28;20425;-70
2023/01/12 03:33:13;;;;;;;6.47;1.70;;;;;;;9.93;56.36;97734.53;5058413;28;20440;-70
2023/01/12 03:36:15;;;;;;;3.77;1.57;;;;;;;9.83;56.52;97737.13;5051493;28;20545;-70
2023/01/12 03:38:55;;;;;;;12.13;1.70;;;;;;;9.87;56.41;97726.41;5056408;28;20223;-70
2023/01/12 03:41:30;;;;;;;4.10;1.60;;;;;;;9.98;56.58;97728.91;5063463;28;20452;-68
2023/01/12 03:43:58;;;;;;;10.53;2.20;;;;;;;9.93;56.47;97737.16;5056844;28;20421;-71
2023/01/12 03:46:30;;;;;;;8.43;1.73;;;;;;;9.97;56.43;97746.38;5053780;28;20452;-69
2023/01/12 03:49:06;;;;;;;6.90;1.90;;;;;;;10.03;56.32;97736.34;5056190;28;20492;-71
2023/01/12 03:51:34;;;;;;;6.70;1.37;;;;;;;10.13;56.27;97743.25;5043283;28;20420;-70
2023/01/12 03:54:01;;;;;;;5.97;1.53;;;;;;;10.13;56.08;97735.41;5057228;28;20433;-68
2023/01/12 03:56:30;;;;;;;6.83;1.80;;;;;;;10.10;56.23;97733.03;5056847;28;20475;-68
2023/01/12 03:58:56;;;;;;;9.53;1.77;;;;;;;10.12;56.29;97732.91;5062292;28;20470;-70
2023/01/12 04:01:21;;;;;;;6.90;1.50;;;;;;;10.18;56.14;97737.59;5049748;28;20483;-70
2023/01/12 04:03:47;;;;;;;7.90;1.70;;;;;;;10.16;55.99;97742.16;5049217;28;20205;-70
2023/01/12 04:06:12;;;;;;;5.30;1.60;;;;;;;10.10;56.37;97730.44;5054078;28;20214;-70
2023/01/12 04:08:38;;;;;;;10.37;2.03;;;;;;;10.08;56.32;97739.41;5055897;28;20214;-69
2023/01/12 04:13:47;;;;;;;8.67;1.37;;;;;;;10.05;56.66;97737.03;5048589;28;20247;-68
2023/01/12 04:16:12;;;;;;;5.87;1.73;;;;;;;10.02;56.61;97729.44;5060574;28;20505;-70
2023/01/12 04:18:38;;;;;;;6.93;1.73;;;;;;;10.18;56.55;97727.13;5058326;28;20641;-70
2023/01/12 04:21:03;;;;;;;6.93;1.50;;;;;;;10.22;56.32;97725.06;5038049;28;20215;-70
2023/01/12 04:23:29;;;;;;;8.97;1.60;;;;;;;10.06;56.37;97717.75;5051075;28;20289;-70
2023/01/12 04:25:54;;;;;;;7.57;1.83;;;;;;;10.23;55.91;97711.81;5041924;28;20237;-69
2023/01/12 04:28:20;;;;;;;6.07;1.80;;;;;;;10.19;56.26;97720.94;5065409;28;20239;-70
2023/01/12 04:30:45;;;;;;;7.57;1.93;;;;;;;10.29;56.55;97699.94;5060372;28;20206;-69
2023/01/12 04:33:10;;;;;;;11.60;1.87;;;;;;;10.30;56.24;97707.69;5053394;28;20253;-67
2023/01/12 04:35:36;;;;;;;8.00;1.63;;;;;;;10.25;56.43;97715.13;5063088;28;20216;-70
2023/01/12 04:38:05;;;;;;;7.20;1.60;;;;;;;10.37;56.11;97704.50;5051197;28;20650;-69
2023/01/12 04:40:31;;;;;;;11.67;1.73;;;;;;;10.39;56.32;97700.84;5042949;28;20182;-71
2023/01/12 04:43:09;;;;;;;7.00;1.40;;;;;;;10.28;56.35;97693.91;5061914;28;20504;-70
2023/01/12 04:45:38;;;;;;;4.80;1.40;;;;;;;10.15;56.68;97701.19;5039487;28;20649;-71
2023/01/12 04:48:09;;;;;;;7.80;1.80;;;;;;;10.20;56.68;97688.53;5050381;28;20485;-70
2023/01/12 04:50:34;;;;;;;9.07;1.70;;;;;;;10.19;56.70;97688.66;5046063;28;20424;-71
2023/01/12 04:53:01;;;;;;;9.40;1.70;;;;;;;10.09;56.76;97679.00;5053742;28;20422;-70
2023/01/12 04:55:27;;;;;;;7.73;1.47;;;;;;;9.99;57.46;97676.38;5036107;28;20639;-71
2023/01/12 04:57:52;;;;;;;7.60;1.83;;;;;;;10.11;57.11;97671.84;5036048;28;20511;-70
2023/01/12 05:00:18;;;;;;;8.23;1.80;;;;;;;10.17;57.18;97665.22;5043300;28;20192;-69
2023/01/12 05:02:43;;;;;;;14.27;1.97;;;;;;;10.03;57.21;97665.63;5057411;28;20186;-69
2023/01/12 05:05:09;;;;;;;10.63;1.90;;;;;;;10.10;57.43;97662.34;5050151;28;20266;-70
2023/01/12 05:07:34;;;;;;;7.10;1.70;;;;;;;10.18;56.89;97658.19;5044370;28;20202;-69
2023/01/12 05:12:44;;;;;;;10.67;2.40;;;;;;;9.91;57.84;97659.69;5042837;28;20187;-70
2023/01/12 05:15:09;;;;;;;7.87;1.57;;;;;;;10.04;57.08;97659.44;5044276;28;20448;-69
2023/01/12 05:17:35;;;;;;;11.23;1.90;;;;;;;10.02;56.97;97666.59;5044322;28;20210;-70
2023/01/12 05:20:00;;;;;;;10.47;2.07;;;;;;;10.07;57.15;97690.59;5059446;28;20707;-71
2023/01/12 05:22:26;;;;;;;10.27;1.90;;;;;;;10.04;57.31;97665.50;5046360;28;20190;-70
2023/01/12 05:24:51;;;;;;;11.60;1.63;;;;;;;10.01;57.07;97659.72;5046295;28;20190;-71
2023/01/12 05:27:17;;;;;;;7.60;2.07;;;;;;;10.12;57.08;97667.41;5058814;28;20208;-70
2023/01/12 05:29:42;;;;;;;8.77;2.10;;;;;;;10.24;56.50;97660.25;5065830;28;20875;-70
2023/01/12 05:32:08;;;;;;;9.57;2.37;;;;;;;9.87;57.51;97672.22;5058921;28;20289;-71
2023/01/12 05:34:33;;;;;;;8.00;2.13;;;;;;;10.10;56.84;97653.63;5062989;28;20277;-70
2023/01/12 05:36:58;;;;;;;4.30;1.50;;;;;;;10.13;56.74;97654.22;5051354;28;20567;-70
2023/01/12 05:39:24;;;;;;;8.13;1.80;;;;;;;10.15;56.67;97651.44;5068733;28;20642;-71
2023/01/12 05:44:33;;;;;;;8.40;2.00;;;;;;;10.22;56.44;97651.72;5062009;28;20178;-70
2023/01/12 05:46:59;;;;;;;6.67;2.53;;;;;;;10.20;56.52;97659.72;5063452;28;20785;-69
2023/01/12 05:49:24;;;;;;;9.43;2.03;;;;;;;10.22;56.55;97654.34;5061607;28;20258;-71
2023/01/12 05:51:50;;;;;;;8.40;1.80;;;;;;;10.15;56.23;97659.28;5054085;28;20182;-70
2023/01/12 05:54:15;;;;;;;7.63;2.13;;;;;;;10.19;55.97;97662.47;5060379;28;20218;-69
2023/01/12 05:56:42;;;;;;;11.17;2.30;;;;;;;10.29;56.21;97661.50;5053572;28;20672;-70
2023/01/12 05:59:09;;;;;;;11.13;2.57;;;;;;;10.01;56.74;97676.25;5052447;28;20713;-69
2023/01/12 06:01:35;;;;;;;11.30;2.00;;;;;;;10.22;56.24;97655.16;5061943;28;20833;-69
2023/01/12 06:04:00;;;;;;;7.27;1.80;;;;;;;10.25;56.50;97657.50;5063557;28;20464;-69
2023/01/12 06:06:29;;;;;;;6.73;2.17;;;;;;;10.21;56.38;97653.47;5061363;28;20194;-69
2023/01/12 06:08:55;;;;;;;5.47;1.80;;;;;;;10.35;56.21;97656.66;5054394;28;20194;-69
2023/01/12 06:14:06;;;;;;;10.40;2.30;;;;;;;10.27;56.21;97657.38;5061507;28;20479;-70
2023/01/12 06:16:31;;;;;;;4.80;1.93;;;;;;;10.24;56.05;97650.59;5042075;28;20833;-71
2023/01/12 06:18:57;;;;;;;10.93;2.30;;;;;;;10.18;56.39;97648.56;5059994;28;20630;-72
2023/01/12 06:21:22;;;;;;;7.80;1.93;;;;;;;10.19;56.69;97642.34;5063316;28;20191;-72
2023/01/12 06:23:48;;;;;;;9.50;2.20;;;;;;;10.32;56.39;97630.75;5060434;28;20178;-71
2023/01/12 06:26:14;;;;;;;6.00;1.80;;;;;;;10.28;56.29;97628.41;5052250;28;20190;-72
2023/01/12 06:28:41;;;;;;;12.07;2.53;;;;;;;10.01;57.02;97625.66;5056726;28;20217;-71
2023/01/12 06:31:09;;;;;;;7.60;1.90;;;;;;;10.15;56.65;97623.44;5064632;28;20224;-71
2023/01/12 06:33:34;;;;;;;4.00;1.40;;;;;;;10.24;56.43;97628.81;5052210;28;20441;-70
2023/01/12 06:36:00;;;;;;;11.83;1.80;;;;;;;10.20;56.57;97627.44;5063926;28;20428;-70
2023/01/12 06:38:30;;;;;;;8.13;1.73;;;;;;;10.28;56.29;97620.53;5054987;28;20379;-70
2023/01/12 06:41:01;;;;;;;11.17;1.93;;;;;;;10.32;56.27;97615.84;5071259;28;20189;-71
2023/01/12 06:43:26;;;;;;;8.20;1.73;;;;;;;10.36;56.28;97613.75;5064090;28;20433;-71
2023/01/12 06:45:53;;;;;;;10.07;2.27;;;;;;;10.27;56.47;97615.47;5062270;28;20767;-72
2023/01/12 06:48:21;;;;;;;7.10;1.50;;;;;;;10.32;56.31;97615.84;5065065;28;20208;-71
2023/01/12 06:50:46;;;;;;;15.23;2.20;;;;;;;10.30;56.42;97616.00;5072624;28;20432;-70
2023/01/12 06:53:12;;;;;;;7.23;1.93;;;;;;;10.29;56.51;97624.81;5063208;28;20428;-70
2023/01/12 06:55:37;;;;;;;11.87;2.27;;;;;;;10.19;56.66;97631.03;5056584;28;20187;-70
2023/01/12 06:58:06;;;;;;;5.50;1.80;;;;;;;10.30;56.53;97634.34;5049143;28;20313;-70
2023/01/12 07:00:31;;;;;;;7.17;1.80;;;;;;;10.35;56.37;97627.81;5053644;28;20182;-71
2023/01/12 07:02:57;;;;;;;6.50;1.60;;;;;;;10.36;56.40;97629.47;5051693;28;20949;-71
2023/01/12 07:05:22;;;;;;;8.27;2.20;;;;;;;10.41;56.22;97622.88;5051917;28;20434;-70
2023/01/12 07:07:48;;;;;;;4.50;1.73;;;;;;;10.32;56.64;97628.13;5049189;28;20195;-71
2023/01/12 07:10:14;;;;;;;11.97;2.20;;;;;;;10.31;56.63;97622.03;5045998;28;20179;-70
2023/01/12 07:12:39;;;;;;;7.57;1.83;;;;;;;10.41;56.58;97622.06;5046680;28;20191;-70
2023/01/12 07:15:06;;;;;;;8.87;2.00;;;;;;;10.40;56.35;97612.56;5051149;28;20187;-69
2023/01/12 07:17:31;;;;;;;9.17;2.03;;;;;;;10.30;56.38;97602.91;5045841;28;20198;-71
2023/01/12 07:19:57;;;;;;;6.60;2.17;;;;;;;10.17;56.71;97596.28;5053716;28;20936;-69
2023/01/12 07:22:22;;;;;;;5.07;1.53;;;;;;;10.24;56.61;97616.53;5046855;28;20266;-69
2023/01/12 07:24:48;;;;;;;5.33;1.33;;;;;;;10.10;56.54;97593.41;5046562;28;20187;-70
2023/01/12 07:27:14;;;;;;;9.07;2.23;;;;;;;10.23;56.24;97601.78;5055861;28;20186;-71
2023/01/12 07:29:39;;;;;;;4.63;1.43;;;;;;;10.21;56.24;97614.19;5049623;28;20681;-71
2023/01/12 07:32:05;;;;;;;13.50;2.20;;;;;;;10.25;55.86;97604.28;5043358;28;20198;-70
2023/01/12 07:34:30;;;;;;;5.87;1.30;;;;;;;10.34;55.68;97605.22;5057590;28;20567;-71
2023/01/12 07:36:56;;;;;;;8.83;1.83;;;;;;;10.52;55.20;97610.59;5037693;28;20567;-71
2023/01/12 07:39:22;;;;;;;12.10;1.97;;;;;;;10.59;54.95;97606.44;5049939;28;20922;-72
2023/01/12 07:44:31;;;;;;;9.50;1.97;;;;;;;10.66;54.51;97596.22;5044437;28;20266;-72
2023/01/12 07:46:59;;;;;;;8.10;3.00;;;;;;;10.64;54.49;97614.72;5045862;28;20432;-72
2023/01/12 07:49:25;;;;;;;19.63;2.30;;;;;;;10.75;54.11;97622.41;5049991;28;20180;-70
2023/01/12 07:51:54;;;;;;;6.43;1.90;;;;;;;10.82;54.14;97620.03;5044601;28;20413;-71
2023/01/12 07:54:20;;;;;;;9.20;1.90;;;;;;;10.72;54.14;97621.84;5038671;28;20521;-72
2023/01/12 07:56:46;;;;;;;7.80;1.80;;;;;;;10.84;53.93;97618.06;5049390;28;20440;-71
2023/01/12 07:59:11;;;;;;;5.73;1.53;;;;;;;10.84;53.93;97620.69;5039590;28;20470;-71
2023/01/12 08:01:37;;;;;;;9.93;1.57;;;;;;;10.75;53.97;97611.06;5049739;28;20187;-71
2023/01/12 08:04:02;;;;;;;6.10;1.80;;;;;;;10.65;54.14;97611.09;5041090;28;20242;-71
2023/01/12 08:06:28;;;;;;;9.63;1.90;;;;;;;10.72;54.24;97603.50;5036786;28;20270;-72
2023/01/12 08:08:54;;;;;;;3.27;1.40;;;;;;;10.68;54.26;97605.56;5047709;28;20294;-71
2023/01/12 08:11:19;;;;;;;5.60;1.53;;;;;;;10.67;54.14;97603.09;5036831;28;20184;-71
2023/01/12 08:13:44;;;;;;;7.83;2.00;;;;;;;10.76;53.84;97602.25;5048309;28;20183;-71
2023/01/12 08:16:14;;;;;;;6.70;1.53;;;;;;;10.72;54.10;97606.09;5037858;28;20197;-70
2023/01/12 08:18:48;;;;;;;4.50;1.40;;;;;;;10.64;54.16;97595.53;5045328;28;20227;-72
2023/01/12 08:21:18;;;;;;;7.47;1.60;;;;;;;10.64;53.98;97603.38;5039881;28;20452;-71
2023/01/12 08:23:46;;;;;;;11.23;1.97;;;;;;;10.67;54.02;97597.88;5043378;28;20474;-72
2023/01/12 08:26:17;;;;;;;8.70;1.60;;;;;;;10.59;54.25;97609.06;5043987;28;20418;-72
2023/01/12 08:28:50;;;;;;;5.97;1.33;;;;;;;10.68;53.97;97599.53;5048316;28;20518;-72
2023/01/12 08:31:17;;;;;;;9.17;1.77;;;;;;;10.74;54.04;97612.03;5050338;28;20453;-72
2023/01/12 08:33:43;;;;;;;4.87;1.60;;;;;;;10.69;54.23;97612.47;5052517;28;20468;-71
2023/01/12 08:36:10;;;;;;;10.77;1.80;;;;;;;10.78;54.04;97616.03;5047755;28;20422;-69
2023/01/12 08:38:36;;;;;;;9.53;1.77;;;;;;;10.77;54.16;97624.88;5049107;28;20465;-72
2023/01/12 08:44:05;;;;;;;3.73;1.30;;;;;;;10.70;54.47;97624.63;5052758;28;20197;-72
2023/01/12 08:46:47;;;;;;;8.57;1.70;;;;;;;10.80;54.15;97618.50;5046597;28;20429;-70
2023/01/12 08:49:14;;;;;;;4.43;1.30;;;;;;;10.79;54.26;97617.69;5051757;28;20448;-72
2023/01/12 08:51:40;;;;;;;5.93;1.37;;;;;;;10.84;54.14;97617.25;5052012;28;20472;-72
2023/01/12 08:54:07;;;;;;;9.20;1.60;;;;;;;10.81;54.33;97620.16;5049325;28;20430;-71
2023/01/12 08:56:32;;;;;;;4.90;1.23;;;;;;;10.70;54.60;97608.06;5044807;28;20183;-71
2023/01/12 08:58:59;;;;;;;3.63;1.40;;;;;;;10.85;54.40;97613.66;5051931;28;20563;-70
2023/01/12 09:01:24;;;;;;;9.07;2.30;;;;;;;10.82;54.19;97617.41;5053658;28;20595;-71
2023/01/12 09:03:49;;;;;;;5.23;1.30;;;;;;;10.66;54.59;97615.38;5050947;28;20429;-71
2023/01/12 09:06:18;;;;;;;5.57;1.60;;;;;;;10.72;54.65;97622.69;5051821;28;20504;-71
2023/01/12 09:08:43;;;;;;;7.23;1.57;;;;;;;10.95;54.15;97618.88;5052988;28;20424;-69
2023/01/12 09:11:10;;;;;;;9.07;1.67;;;;;;;10.86;54.41;97621.38;5051515;28;20446;-71
2023/01/12 09:13:36;;;;;;;6.27;1.70;;;;;;;10.85;54.41;97617.09;5051806;28;20183;-70
2023/01/12 09:16:12;;;;;;;3.13;1.27;;;;;;;10.89;54.45;97618.47;5051773;28;20437;-70
2023/01/12 09:18:39;;;;;;;6.77;1.53;;;;;;;10.96;54.34;97612.66;5051282;28;20207;-71
2023/01/12 09:21:06;;;;;;;3.60;1.40;;;;;;;11.02;54.35;97618.16;5051442;28;20964;-71
2023/01/12 09:23:32;;;;;;;10.33;1.60;;;;;;;10.84;54.85;97625.13;5043441;28;20414;-70
2023/01/12 09:26:09;;;;;;;10.10;1.80;;;;;;;10.96;54.74;97628.41;5048459;28;20792;-71
2023/01/12 09:28:35;;;;;;;9.43;1.80;;;;;;;11.02;54.70;97633.91;5043860;28;20265;-70
2023/01/12 09:31:05;;;;;;;8.33;2.10;;;;;;;11.03;54.70;97638.16;5050466;28;20433;-70
2023/01/12 09:33:31;;;;;;;8.90;1.67;;;;;;;10.98;54.95;97642.16;5050846;28;20191;-71
2023/01/12 09:36:01;;;;;;;8.27;1.40;;;;;;;10.91;55.31;97645.38;5051635;28;20425;-70
2023/01/12 09:38:27;;;;;;;8.63;1.80;;;;;;;10.95;55.34;97653.78;5050635;28;20472;-71
2023/01/12 09:40:53;;;;;;;8.47;1.43;;;;;;;10.88;55.79;97648.28;5053029;28;20413;-70
2023/01/12 09:46:57;;;;;;;4.47;1.40;;;;;;;10.88;55.90;97656.16;5050508;28;20198;-71
2023/01/12 09:49:04;;;;;;;4.47;1.83;;;;;;;10.87;55.76;97645.81;5053806;28;20437;-71
2023/01/12 09:51:34;;;;;;;20.17;1.40;;;;;;;11.08;55.25;97650.84;5049446;28;20946;-71
2023/01/12 09:54:00;;;;;;;6.00;1.13;;;;;;;11.16;55.27;97643.06;5050034;28;20461;-71
2023/01/12 09:56:29;;;;;;;5.20;1.50;;;;;;;11.12;55.43;97627.78;5051094;28;20460;-70
2023/01/12 09:59:33;;;;;;;7.20;1.50;;;;;;;11.12;55.22;97618.09;5049472;28;20218;-72
2023/01/12 10:01:58;;;;;;;9.17;1.40;;;;;;;11.17;55.13;97610.63;5045576;28;20514;-70
2023/01/12 10:04:24;;;;;;;7.37;1.30;;;;;;;11.32;54.61;97607.50;5050791;28;20905;-71
2023/01/12 10:06:49;;;;;;;4.23;1.43;;;;;;;11.44;54.67;97602.88;5050725;28;20179;-70
2023/01/12 10:09:19;;;;;;;6.43;1.80;;;;;;;11.45;54.22;97592.25;5051307;28;20222;-70
2023/01/12 10:12:11;;;;;;;5.50;1.20;;;;;;;11.36;54.59;97593.09;5053051;28;20183;-70
2023/01/12 10:14:58;;;;;;;7.90;1.37;;;;;;;11.42;54.16;97583.81;5050793;28;20410;-70
2023/01/12 10:17:38;;;;;;;7.43;1.20;;;;;;;11.55;54.22;97579.03;5048627;28;20437;-70
2023/01/12 10:20:06;;;;;;;3.47;1.03;;;;;;;11.67;53.76;97580.44;5055291;28;20425;-70
2023/01/12 10:22:47;;;;;;;8.00;2.07;;;;;;;11.47;54.14;97566.66;5047536;28;20432;-71
2023/01/12 10:25:28;;;;;;;7.17;1.60;;;;;;;11.67;53.95;97566.50;5050730;28;20943;-71
2023/01/12 10:27:55;;;;;;;5.20;1.20;;;;;;;11.53;53.92;97558.19;5050022;28;20461;-70
2023/01/12 10:30:30;;;;;;;4.90;1.53;;;;;;;11.56;54.12;97556.25;5050346;28;20471;-70
2023/01/12 10:32:57;;;;;;;2.97;1.23;;;;;;;11.57;53.71;97560.53;5050606;28;20462;-71
2023/01/12 10:35:24;;;;;;;6.67;1.30;;;;;;;11.75;53.17;97556.06;5050452;28;20440;-71
2023/01/12 10:37:54;;;;;;;8.17;1.50;;;;;;;11.85;53.13;97566.50;5048938;28;20519;-71
2023/01/12 10:40:31;;;;;;;9.30;1.70;;;;;;;11.69;53.41;97567.19;5049729;28;20514;-71
2023/01/12 10:43:18;;;;;;;5.60;1.30;;;;;;;11.72;53.67;97577.38;5047560;28;20422;-71
2023/01/12 10:46:01;;;;;;;4.93;1.60;;;;;;;11.64;53.52;97574.69;5044305;28;20467;-70
2023/01/12 10:48:27;;;;;;;5.03;1.27;;;;;;;11.75;53.21;97577.06;5049117;28;20441;-70
2023/01/12 10:51:01;;;;;;;2.90;1.10;;;;;;;11.23;54.34;97582.97;5056067;28;20762;-72
2023/01/12 10:53:30;;;;;;;4.97;1.00;;;;;;;11.67;53.50;97582.28;5050246;28;20191;-72
2023/01/12 10:55:57;;;;;;;3.70;1.07;;;;;;;11.86;52.94;97578.66;5049549;28;20516;-71
2023/01/12 10:58:29;;;;;;;6.53;1.40;;;;;;;11.72;53.19;97574.75;5049845;28;20834;-70
2023/01/12 11:00:55;;;;;;;6.93;1.20;;;;;;;11.67;53.23;97569.13;5051763;28;20420;-72
2023/01/12 11:03:29;;;;;;;5.80;1.00;;;;;;;11.61;53.20;97561.84;5050558;28;20421;-72
2023/01/12 11:05:55;;;;;;;4.20;0.73;;;;;;;11.74;53.20;97554.41;5045811;28;20217;-71
2023/01/12 11:08:27;;;;;;;7.90;1.00;;;;;;;11.86;52.87;97552.41;5050422;28;20440;-71
2023/01/12 11:10:52;;;;;;;4.50;1.00;;;;;;;11.93;52.48;97547.38;5050303;28;20441;-69
2023/01/12 11:13:31;;;;;;;16.13;1.20;;;;;;;11.67;52.88;97548.13;5050224;28;20528;-70
2023/01/12 11:16:20;;;;;;;3.03;1.20;;;;;;;11.87;52.67;97548.78;5048852;28;20298;-70
2023/01/12 11:18:58;;;;;;;3.93;0.90;;;;;;;12.01;52.44;97544.00;5047979;28;20468;-70
2023/01/12 11:21:28;;;;;;;3.40;1.23;;;;;;;11.96;52.58;97540.00;5047955;28;20426;-71
2023/01/12 11:23:55;;;;;;;4.63;1.10;;;;;;;11.83;52.78;97557.94;5055420;28;20417;-71
2023/01/12 11:26:35;;;;;;;2.50;0.90;;;;;;;11.65;52.87;97544.84;5054906;28;20436;-72
2023/01/12 11:29:21;;;;;;;2.40;0.80;;;;;;;11.47;53.58;97544.84;5019583;28;20809;-72
2023/01/12 11:31:48;;;;;;;2.70;0.80;;;;;;;11.65;53.52;97544.84;5052888;28;20441;-71
2023/01/12 11:34:17;;;;;;;2.97;0.90;;;;;;;11.82;52.94;97540.53;5052424;28;20425;-71
2023/01/12 11:36:47;;;;;;;6.13;0.97;;;;;;;11.91;53.15;97546.69;5052265;28;20417;-72
2023/01/12 11:39:14;;;;;;;1.60;0.80;;;;;;;11.89;52.75;97540.75;5053520;28;21008;-71
2023/01/12 11:45:00;;;;;;;1.73;1.00;;;;;;;11.76;53.47;97538.53;5043155;28;20475;-71
2023/01/12 11:47:50;;;;;;;1.83;0.90;;;;;;;11.97;53.26;97535.59;5039118;28;20446;-71
2023/01/12 11:50:30;;;;;;;2.50;0.90;;;;;;;12.02;53.28;97535.97;5042182;28;20413;-71
2023/01/12 11:52:57;;;;;;;2.30;0.90;;;;;;;11.76;53.70;97539.34;5051954;28;20479;-72
2023/01/12 11:55:44;;;;;;;4.03;1.00;;;;;;;11.69;54.24;97527.81;5051948;28;20456;-71
2023/01/12 11:58:12;;;;;;;3.33;0.80;;;;;;;11.94;53.55;97518.31;5051303;28;20501;-72
2023/01/12 12:00:48;;;;;;;3.17;1.03;;;;;;;11.74;54.10;97517.66;5045230;28;20449;-72
2023/01/12 12:03:40;;;;;;;4.10;1.17;;;;;;;11.68;54.31;97519.09;5052932;28;20425;-71
2023/01/12 12:06:18;;;;;;;2.30;0.90;;;;;;;11.63;54.63;97517.91;5049681;28;20779;-71
2023/01/12 12:08:49;;;;;;;3.87;1.20;;;;;;;11.87;54.07;97506.78;5048619;28;20476;-71
2023/01/12 12:11:27;;;;;;;2.80;0.80;;;;;;;11.87;54.38;97498.06;5057968;28;20917;-72
2023/01/12 12:13:58;;;;;;;3.50;1.67;;;;;;;11.90;54.01;97505.63;5052998;28;20831;-70
2023/01/12 12:16:33;;;;;;;2.97;0.87;;;;;;;11.94;53.90;97499.13;5052836;28;20417;-72
2023/01/12 12:19:17;;;;;;;1.70;0.97;;;;;;;11.82;54.28;97495.91;5055143;28;20609;-71
2023/01/12 12:21:46;;;;;;;3.40;1.23;;;;;;;11.94;54.08;97496.47;5056888;28;20473;-71